Terminal Aerodrome Forecast
Issued by NWS

Home | Current Version | Previous Version | Text Only | Print | Product List | Glossary On
Versions: 1 2 3 4 5 6 7 8 9 10 11 12 13 14 15 16 17 18 19 20 21 22 23 24 25 26 27 28 29 30 31 32 33 34 35 36 37 38 39 40 41 42 43 44 45 46
208
FTUS45 KBOU 222340
TAFAPA
TAF
KAPA 222340Z 2300/2324 16014KT P6SM SCT080 BKN140
      TEMPO 2300/2301 -TSRA BKN080CB
     FM230300 18012KT P6SM SCT090 SCT140 BKN200
     FM230600 21007KT P6SM FEW140
     FM231800 17014G22KT P6SM SCT120=

USA.gov is the U.S. government's official web portal to all federal, state and local government web resources and services.